Terminal Aerodrome Forecast
Issued by NWS Northern Indiana

Home | Current Version | Previous Version | Graphics & Text | Print | Product List | Glossary On
Versions: 1 2 3 4 5 6 7 8 9 10 11 12 13 14
000
FTUS43 KIWX 292300
TAFFWA
TAF
KFWA 292331Z 3000/3024 VRB03KT P6SM SKC
     FM300600 34010KT P6SM SCT020 BKN050
     FM300900 36010KT 5SM BR VCSH BKN008
     FM301600 35010KT P6SM OVC010=

USA.gov is the U.S. government's official web portal to all federal, state and local government web resources and services.